sensor_id;sensor_type;location;lat;lon;timestamp;temperature;humidity
50804;DHT22;37205;51.434;6.756;2023-12-22T00:02:18;5.60;99.90
50804;DHT22;37205;51.434;6.756;2023-12-22T00:04:43;5.60;99.90
50804;DHT22;37205;51.434;6.756;2023-12-22T00:07:09;5.60;99.90
50804;DHT22;37205;51.434;6.756;2023-12-22T00:09:34;5.60;99.90
50804;DHT22;37205;51.434;6.756;2023-12-22T00:12:00;5.60;99.90
50804;DHT22;37205;51.434;6.756;2023-12-22T00:14:25;5.70;99.90
50804;DHT22;37205;51.434;6.756;2023-12-22T00:16:51;5.70;99.90
50804;DHT22;37205;51.434;6.756;2023-12-22T00:19:16;5.70;99.90
50804;DHT22;37205;51.434;6.756;2023-12-22T00:21:42;5.80;99.90
50804;DHT22;37205;51.434;6.756;2023-12-22T00:24:07;5.80;99.90
50804;DHT22;37205;51.434;6.756;2023-12-22T00:26:33;5.80;99.90
50804;DHT22;37205;51.434;6.756;2023-12-22T00:28:58;5.80;99.90
50804;DHT22;37205;51.434;6.756;2023-12-22T00:31:24;5.90;99.90
50804;DHT22;37205;51.434;6.756;2023-12-22T00:33:49;5.90;99.90
50804;DHT22;37205;51.434;6.756;2023-12-22T00:36:15;5.90;99.90
50804;DHT22;37205;51.434;6.756;2023-12-22T00:38:43;5.90;99.90
50804;DHT22;37205;51.434;6.756;2023-12-22T00:41:10;6.00;99.90
50804;DHT22;37205;51.434;6.756;2023-12-22T00:43:35;6.00;99.90
50804;DHT22;37205;51.434;6.756;2023-12-22T00:46:01;6.10;99.90
50804;DHT22;37205;51.434;6.756;2023-12-22T00:48:27;6.00;99.90
50804;DHT22;37205;51.434;6.756;2023-12-22T00:50:53;6.10;99.90
50804;DHT22;37205;51.434;6.756;2023-12-22T00:53:19;6.10;99.90
50804;DHT22;37205;51.434;6.756;2023-12-22T00:55:44;6.20;99.90
50804;DHT22;37205;51.434;6.756;2023-12-22T00:58:11;6.20;99.90
50804;DHT22;37205;51.434;6.756;2023-12-22T01:00:36;6.10;99.90
50804;DHT22;37205;51.434;6.756;2023-12-22T01:03:02;6.20;99.90
50804;DHT22;37205;51.434;6.756;2023-12-22T01:05:28;6.20;99.90
50804;DHT22;37205;51.434;6.756;2023-12-22T01:07:53;6.30;99.90
50804;DHT22;37205;51.434;6.756;2023-12-22T01:10:19;6.20;99.90
50804;DHT22;37205;51.434;6.756;2023-12-22T01:12:44;6.30;99.90
50804;DHT22;37205;51.434;6.756;2023-12-22T01:15:10;6.30;99.90
50804;DHT22;37205;51.434;6.756;2023-12-22T01:17:35;6.40;99.90
50804;DHT22;37205;51.434;6.756;2023-12-22T01:20:02;6.30;99.90
50804;DHT22;37205;51.434;6.756;2023-12-22T01:22:27;6.30;99.90
50804;DHT22;37205;51.434;6.756;2023-12-22T01:24:53;6.30;99.90
50804;DHT22;37205;51.434;6.756;2023-12-22T01:27:18;6.30;99.90
50804;DHT22;37205;51.434;6.756;2023-12-22T01:29:45;6.40;99.90
50804;DHT22;37205;51.434;6.756;2023-12-22T01:32:10;6.40;99.90
50804;DHT22;37205;51.434;6.756;2023-12-22T01:34:36;6.40;99.90
50804;DHT22;37205;51.434;6.756;2023-12-22T01:37:01;6.40;99.90
50804;DHT22;37205;51.434;6.756;2023-12-22T01:39:27;6.40;99.90
50804;DHT22;37205;51.434;6.756;2023-12-22T01:41:52;6.40;99.90
50804;DHT22;37205;51.434;6.756;2023-12-22T01:44:18;6.40;99.90
50804;DHT22;37205;51.434;6.756;2023-12-22T01:46:43;6.40;99.90
50804;DHT22;37205;51.434;6.756;2023-12-22T01:49:09;6.40;99.90
50804;DHT22;37205;51.434;6.756;2023-12-22T01:51:37;6.30;99.90
50804;DHT22;37205;51.434;6.756;2023-12-22T01:54:05;6.20;99.90
50804;DHT22;37205;51.434;6.756;2023-12-22T01:56:32;6.10;99.90
50804;DHT22;37205;51.434;6.756;2023-12-22T01:59:00;6.00;99.90
50804;DHT22;37205;51.434;6.756;2023-12-22T02:01:27;5.90;99.90
50804;DHT22;37205;51.434;6.756;2023-12-22T02:03:54;5.80;99.90
50804;DHT22;37205;51.434;6.756;2023-12-22T02:06:20;5.70;99.90
50804;DHT22;37205;51.434;6.756;2023-12-22T02:08:49;5.60;99.90
50804;DHT22;37205;51.434;6.756;2023-12-22T02:11:15;5.60;99.90
50804;DHT22;37205;51.434;6.756;2023-12-22T02:13:42;5.50;99.90
50804;DHT22;37205;51.434;6.756;2023-12-22T02:16:18;5.50;99.90
50804;DHT22;37205;51.434;6.756;2023-12-22T02:18:47;5.40;99.90
50804;DHT22;37205;51.434;6.756;2023-12-22T02:21:15;5.40;99.90
50804;DHT22;37205;51.434;6.756;2023-12-22T02:23:40;5.40;99.90
50804;DHT22;37205;51.434;6.756;2023-12-22T02:26:44;5.30;99.90
50804;DHT22;37205;51.434;6.756;2023-12-22T02:29:13;5.30;99.90
50804;DHT22;37205;51.434;6.756;2023-12-22T02:31:43;5.30;99.90
50804;DHT22;37205;51.434;6.756;2023-12-22T02:34:16;5.40;99.90
50804;DHT22;37205;51.434;6.756;2023-12-22T02:36:43;5.40;99.90
50804;DHT22;37205;51.434;6.756;2023-12-22T02:39:10;5.40;99.90
50804;DHT22;37205;51.434;6.756;2023-12-22T02:41:36;5.40;99.90
50804;DHT22;37205;51.434;6.756;2023-12-22T02:44:02;5.40;99.90
50804;DHT22;37205;51.434;6.756;2023-12-22T02:46:28;5.40;99.90
50804;DHT22;37205;51.434;6.756;2023-12-22T02:48:53;5.40;99.90
50804;DHT22;37205;51.434;6.756;2023-12-22T02:51:19;5.50;99.90
50804;DHT22;37205;51.434;6.756;2023-12-22T02:53:45;5.40;99.90
50804;DHT22;37205;51.434;6.756;2023-12-22T02:56:10;5.40;99.90
50804;DHT22;37205;51.434;6.756;2023-12-22T02:58:35;5.40;99.90
50804;DHT22;37205;51.434;6.756;2023-12-22T03:01:01;5.50;99.90
50804;DHT22;37205;51.434;6.756;2023-12-22T03:03:27;5.50;99.90
50804;DHT22;37205;51.434;6.756;2023-12-22T03:05:52;5.40;99.90
50804;DHT22;37205;51.434;6.756;2023-12-22T03:08:18;5.40;99.90
50804;DHT22;37205;51.434;6.756;2023-12-22T03:10:43;5.40;99.90
50804;DHT22;37205;51.434;6.756;2023-12-22T03:13:09;5.40;99.90
50804;DHT22;37205;51.434;6.756;2023-12-22T03:15:34;5.40;99.90
50804;DHT22;37205;51.434;6.756;2023-12-22T03:18:00;5.50;99.90
50804;DHT22;37205;51.434;6.756;2023-12-22T03:20:25;5.50;99.90
50804;DHT22;37205;51.434;6.756;2023-12-22T03:22:51;5.50;99.90
50804;DHT22;37205;51.434;6.756;2023-12-22T03:25:16;5.50;99.90
50804;DHT22;37205;51.434;6.756;2023-12-22T03:27:42;5.50;99.90
50804;DHT22;37205;51.434;6.756;2023-12-22T03:30:08;5.50;99.90
50804;DHT22;37205;51.434;6.756;2023-12-22T03:32:33;5.40;99.90
50804;DHT22;37205;51.434;6.756;2023-12-22T03:34:59;5.50;99.90
50804;DHT22;37205;51.434;6.756;2023-12-22T03:37:24;5.40;99.90
50804;DHT22;37205;51.434;6.756;2023-12-22T03:39:50;5.50;99.90
50804;DHT22;37205;51.434;6.756;2023-12-22T03:42:15;5.50;99.90
50804;DHT22;37205;51.434;6.756;2023-12-22T03:44:41;5.50;99.90
50804;DHT22;37205;51.434;6.756;2023-12-22T03:47:06;5.40;99.90
50804;DHT22;37205;51.434;6.756;2023-12-22T03:49:32;5.40;99.90
50804;DHT22;37205;51.434;6.756;2023-12-22T03:51:58;5.40;99.90
50804;DHT22;37205;51.434;6.756;2023-12-22T03:54:23;5.40;99.90
50804;DHT22;37205;51.434;6.756;2023-12-22T03:56:49;5.40;99.90
50804;DHT22;37205;51.434;6.756;2023-12-22T03:59:14;5.40;99.90
50804;DHT22;37205;51.434;6.756;2023-12-22T04:01:43;5.40;99.90
50804;DHT22;37205;51.434;6.756;2023-12-22T04:04:09;5.40;99.90
50804;DHT22;37205;51.434;6.756;2023-12-22T04:06:38;5.40;99.90
50804;DHT22;37205;51.434;6.756;2023-12-22T04:09:04;5.40;99.90
50804;DHT22;37205;51.434;6.756;2023-12-22T04:11:30;5.50;99.90
50804;DHT22;37205;51.434;6.756;2023-12-22T04:13:55;5.40;99.90
50804;DHT22;37205;51.434;6.756;2023-12-22T04:16:21;5.50;99.90
50804;DHT22;37205;51.434;6.756;2023-12-22T04:18:46;5.50;99.90
50804;DHT22;37205;51.434;6.756;2023-12-22T04:21:12;5.50;99.90
50804;DHT22;37205;51.434;6.756;2023-12-22T04:23:37;5.60;99.90
50804;DHT22;37205;51.434;6.756;2023-12-22T04:26:03;5.60;99.90
50804;DHT22;37205;51.434;6.756;2023-12-22T04:28:28;5.80;99.90
50804;DHT22;37205;51.434;6.756;2023-12-22T04:30:54;5.80;99.90
50804;DHT22;37205;51.434;6.756;2023-12-22T04:33:19;5.80;99.90
50804;DHT22;37205;51.434;6.756;2023-12-22T04:35:45;5.90;99.90
50804;DHT22;37205;51.434;6.756;2023-12-22T04:38:10;6.00;99.90
50804;DHT22;37205;51.434;6.756;2023-12-22T04:40:36;6.00;99.90
50804;DHT22;37205;51.434;6.756;2023-12-22T04:43:01;6.10;99.90
50804;DHT22;37205;51.434;6.756;2023-12-22T04:45:27;6.10;99.90
50804;DHT22;37205;51.434;6.756;2023-12-22T04:47:52;6.20;99.90
50804;DHT22;37205;51.434;6.756;2023-12-22T04:50:18;6.20;99.90
50804;DHT22;37205;51.434;6.756;2023-12-22T04:52:44;6.20;99.90
50804;DHT22;37205;51.434;6.756;2023-12-22T04:55:09;6.30;99.90
50804;DHT22;37205;51.434;6.756;2023-12-22T04:57:35;6.20;99.90
50804;DHT22;37205;51.434;6.756;2023-12-22T05:00:00;6.20;99.90
50804;DHT22;37205;51.434;6.756;2023-12-22T05:02:26;6.30;99.90
50804;DHT22;37205;51.434;6.756;2023-12-22T05:04:51;6.20;99.90
50804;DHT22;37205;51.434;6.756;2023-12-22T05:07:17;6.20;99.90
50804;DHT22;37205;51.434;6.756;2023-12-22T05:09:42;6.10;99.90
50804;DHT22;37205;51.434;6.756;2023-12-22T05:12:08;6.10;99.90
50804;DHT22;37205;51.434;6.756;2023-12-22T05:14:33;5.90;99.90
50804;DHT22;37205;51.434;6.756;2023-12-22T05:16:59;5.70;99.90
50804;DHT22;37205;51.434;6.756;2023-12-22T05:19:24;5.70;99.90
50804;DHT22;37205;51.434;6.756;2023-12-22T05:21:50;5.60;99.90
50804;DHT22;37205;51.434;6.756;2023-12-22T05:24:18;5.60;99.90
50804;DHT22;37205;51.434;6.756;2023-12-22T05:26:43;5.60;99.90
50804;DHT22;37205;51.434;6.756;2023-12-22T05:29:09;5.50;99.90
50804;DHT22;37205;51.434;6.756;2023-12-22T05:31:34;5.50;99.90
50804;DHT22;37205;51.434;6.756;2023-12-22T05:34:00;5.50;99.90
50804;DHT22;37205;51.434;6.756;2023-12-22T05:36:25;5.50;99.90
50804;DHT22;37205;51.434;6.756;2023-12-22T05:38:51;5.60;99.90
50804;DHT22;37205;51.434;6.756;2023-12-22T05:41:16;5.50;99.90
50804;DHT22;37205;51.434;6.756;2023-12-22T05:43:42;5.60;99.90
50804;DHT22;37205;51.434;6.756;2023-12-22T05:46:08;5.60;99.90
50804;DHT22;37205;51.434;6.756;2023-12-22T05:48:35;5.60;99.90
50804;DHT22;37205;51.434;6.756;2023-12-22T05:51:00;5.60;99.90
50804;DHT22;37205;51.434;6.756;2023-12-22T05:53:28;5.60;99.90
50804;DHT22;37205;51.434;6.756;2023-12-22T05:55:54;5.60;99.90
50804;DHT22;37205;51.434;6.756;2023-12-22T05:58:19;5.70;99.90
50804;DHT22;37205;51.434;6.756;2023-12-22T06:00:45;5.70;99.90
50804;DHT22;37205;51.434;6.756;2023-12-22T06:03:10;5.80;99.90
50804;DHT22;37205;51.434;6.756;2023-12-22T06:05:36;5.70;99.90
50804;DHT22;37205;51.434;6.756;2023-12-22T06:08:01;5.90;99.90
50804;DHT22;37205;51.434;6.756;2023-12-22T06:10:27;5.80;99.90
50804;DHT22;37205;51.434;6.756;2023-12-22T06:12:52;5.90;99.90
50804;DHT22;37205;51.434;6.756;2023-12-22T06:15:18;5.80;99.90
50804;DHT22;37205;51.434;6.756;2023-12-22T06:17:44;5.90;99.90
50804;DHT22;37205;51.434;6.756;2023-12-22T06:20:09;5.90;99.90
50804;DHT22;37205;51.434;6.756;2023-12-22T06:22:35;5.90;99.90
50804;DHT22;37205;51.434;6.756;2023-12-22T06:25:01;5.90;99.90
50804;DHT22;37205;51.434;6.756;2023-12-22T06:27:33;5.90;99.90
50804;DHT22;37205;51.434;6.756;2023-12-22T06:29:58;5.90;99.90
50804;DHT22;37205;51.434;6.756;2023-12-22T06:32:24;5.90;99.90
50804;DHT22;37205;51.434;6.756;2023-12-22T06:34:49;5.90;99.90
50804;DHT22;37205;51.434;6.756;2023-12-22T06:37:15;6.00;99.90
50804;DHT22;37205;51.434;6.756;2023-12-22T06:39:40;6.00;99.90
50804;DHT22;37205;51.434;6.756;2023-12-22T06:42:06;6.00;99.90
50804;DHT22;37205;51.434;6.756;2023-12-22T06:44:36;6.00;99.90
50804;DHT22;37205;51.434;6.756;2023-12-22T06:47:02;6.00;99.90
50804;DHT22;37205;51.434;6.756;2023-12-22T06:49:28;6.00;99.90
50804;DHT22;37205;51.434;6.756;2023-12-22T06:51:53;6.00;99.90
50804;DHT22;37205;51.434;6.756;2023-12-22T06:54:18;6.10;99.90
50804;DHT22;37205;51.434;6.756;2023-12-22T06:56:44;6.10;99.90
50804;DHT22;37205;51.434;6.756;2023-12-22T06:59:10;6.20;99.90
50804;DHT22;37205;51.434;6.756;2023-12-22T07:01:37;6.30;99.90
50804;DHT22;37205;51.434;6.756;2023-12-22T07:04:04;6.40;99.90
50804;DHT22;37205;51.434;6.756;2023-12-22T07:06:31;6.40;99.90
50804;DHT22;37205;51.434;6.756;2023-12-22T07:11:23;6.70;99.90
50804;DHT22;37205;51.434;6.756;2023-12-22T07:13:49;6.80;99.90
50804;DHT22;37205;51.434;6.756;2023-12-22T07:16:15;6.90;99.90
50804;DHT22;37205;51.434;6.756;2023-12-22T07:18:40;6.90;99.90
50804;DHT22;37205;51.434;6.756;2023-12-22T07:21:06;6.90;99.90
50804;DHT22;37205;51.434;6.756;2023-12-22T07:23:32;7.00;99.90
50804;DHT22;37205;51.434;6.756;2023-12-22T07:25:58;7.00;99.90
50804;DHT22;37205;51.434;6.756;2023-12-22T07:28:24;7.10;99.90
50804;DHT22;37205;51.434;6.756;2023-12-22T07:30:49;7.10;99.90
50804;DHT22;37205;51.434;6.756;2023-12-22T07:33:15;7.20;99.90
50804;DHT22;37205;51.434;6.756;2023-12-22T07:35:40;7.30;99.90
50804;DHT22;37205;51.434;6.756;2023-12-22T07:38:06;7.30;99.90
50804;DHT22;37205;51.434;6.756;2023-12-22T07:40:31;7.30;99.90
50804;DHT22;37205;51.434;6.756;2023-12-22T07:42:57;7.30;99.90
50804;DHT22;37205;51.434;6.756;2023-12-22T07:45:23;7.30;99.90
50804;DHT22;37205;51.434;6.756;2023-12-22T07:47:48;7.30;99.90
50804;DHT22;37205;51.434;6.756;2023-12-22T07:50:14;7.40;99.90
50804;DHT22;37205;51.434;6.756;2023-12-22T07:52:40;7.40;99.90
50804;DHT22;37205;51.434;6.756;2023-12-22T07:55:06;7.50;99.90
50804;DHT22;37205;51.434;6.756;2023-12-22T07:57:33;7.40;99.90
50804;DHT22;37205;51.434;6.756;2023-12-22T07:59:58;7.40;99.90
50804;DHT22;37205;51.434;6.756;2023-12-22T08:02:24;7.40;99.90
50804;DHT22;37205;51.434;6.756;2023-12-22T08:04:49;7.50;99.90
50804;DHT22;37205;51.434;6.756;2023-12-22T08:07:16;7.50;99.90
50804;DHT22;37205;51.434;6.756;2023-12-22T08:09:41;7.50;99.90
50804;DHT22;37205;51.434;6.756;2023-12-22T08:12:07;7.50;99.90
50804;DHT22;37205;51.434;6.756;2023-12-22T08:14:33;7.60;99.90
50804;DHT22;37205;51.434;6.756;2023-12-22T08:16:58;7.60;99.90
50804;DHT22;37205;51.434;6.756;2023-12-22T08:19:24;7.60;99.90
50804;DHT22;37205;51.434;6.756;2023-12-22T08:21:52;7.60;99.90
50804;DHT22;37205;51.434;6.756;2023-12-22T08:24:18;7.70;99.90
50804;DHT22;37205;51.434;6.756;2023-12-22T08:26:43;7.70;99.90
50804;DHT22;37205;51.434;6.756;2023-12-22T08:29:09;7.70;99.90
50804;DHT22;37205;51.434;6.756;2023-12-22T08:31:34;7.70;99.90
50804;DHT22;37205;51.434;6.756;2023-12-22T08:34:00;7.80;99.90
50804;DHT22;37205;51.434;6.756;2023-12-22T08:36:25;7.80;99.90
50804;DHT22;37205;51.434;6.756;2023-12-22T08:38:51;7.90;99.90
50804;DHT22;37205;51.434;6.756;2023-12-22T08:41:16;7.90;99.90
50804;DHT22;37205;51.434;6.756;2023-12-22T08:43:42;8.00;99.90
50804;DHT22;37205;51.434;6.756;2023-12-22T08:46:08;8.00;99.90
50804;DHT22;37205;51.434;6.756;2023-12-22T08:48:35;8.10;99.90
50804;DHT22;37205;51.434;6.756;2023-12-22T08:51:00;8.10;99.90
50804;DHT22;37205;51.434;6.756;2023-12-22T08:53:26;8.20;99.90
50804;DHT22;37205;51.434;6.756;2023-12-22T08:55:55;8.20;99.90
50804;DHT22;37205;51.434;6.756;2023-12-22T08:58:21;8.20;99.90
50804;DHT22;37205;51.434;6.756;2023-12-22T09:00:47;8.10;99.90
50804;DHT22;37205;51.434;6.756;2023-12-22T09:03:13;8.20;99.90
50804;DHT22;37205;51.434;6.756;2023-12-22T09:05:38;8.20;99.90
50804;DHT22;37205;51.434;6.756;2023-12-22T09:08:04;8.20;99.90
50804;DHT22;37205;51.434;6.756;2023-12-22T09:10:31;8.30;99.90
50804;DHT22;37205;51.434;6.756;2023-12-22T09:12:58;8.30;99.90
50804;DHT22;37205;51.434;6.756;2023-12-22T09:15:23;8.30;99.90
50804;DHT22;37205;51.434;6.756;2023-12-22T09:17:49;8.30;99.90
50804;DHT22;37205;51.434;6.756;2023-12-22T09:20:17;8.30;99.90
50804;DHT22;37205;51.434;6.756;2023-12-22T09:22:42;8.30;99.90
50804;DHT22;37205;51.434;6.756;2023-12-22T09:25:08;8.40;99.90
50804;DHT22;37205;51.434;6.756;2023-12-22T09:27:34;8.50;99.90
50804;DHT22;37205;51.434;6.756;2023-12-22T09:29:59;8.40;99.90
50804;DHT22;37205;51.434;6.756;2023-12-22T09:32:25;8.50;99.90
50804;DHT22;37205;51.434;6.756;2023-12-22T09:34:52;8.50;99.90
50804;DHT22;37205;51.434;6.756;2023-12-22T09:37:17;8.50;99.90
50804;DHT22;37205;51.434;6.756;2023-12-22T09:39:43;8.50;99.90
50804;DHT22;37205;51.434;6.756;2023-12-22T09:42:08;8.50;99.90
50804;DHT22;37205;51.434;6.756;2023-12-22T09:44:36;8.40;99.90
50804;DHT22;37205;51.434;6.756;2023-12-22T09:47:04;8.40;99.90
50804;DHT22;37205;51.434;6.756;2023-12-22T09:49:33;8.40;99.90
50804;DHT22;37205;51.434;6.756;2023-12-22T09:51:59;8.40;99.90
50804;DHT22;37205;51.434;6.756;2023-12-22T09:54:27;8.30;99.90
50804;DHT22;37205;51.434;6.756;2023-12-22T09:56:53;8.30;99.90
50804;DHT22;37205;51.434;6.756;2023-12-22T09:59:19;8.30;99.90
50804;DHT22;37205;51.434;6.756;2023-12-22T10:01:47;8.40;99.90
50804;DHT22;37205;51.434;6.756;2023-12-22T10:04:14;8.40;99.90
50804;DHT22;37205;51.434;6.756;2023-12-22T10:06:40;8.40;99.90
50804;DHT22;37205;51.434;6.756;2023-12-22T10:09:06;8.50;99.90
50804;DHT22;37205;51.434;6.756;2023-12-22T10:11:34;8.60;99.90
50804;DHT22;37205;51.434;6.756;2023-12-22T10:14:02;8.60;99.90
50804;DHT22;37205;51.434;6.756;2023-12-22T10:16:28;8.60;99.90
50804;DHT22;37205;51.434;6.756;2023-12-22T10:18:55;8.70;99.90
50804;DHT22;37205;51.434;6.756;2023-12-22T10:21:20;8.70;99.90
50804;DHT22;37205;51.434;6.756;2023-12-22T10:23:46;8.70;99.90
50804;DHT22;37205;51.434;6.756;2023-12-22T10:26:12;8.80;99.90
50804;DHT22;37205;51.434;6.756;2023-12-22T10:28:41;8.80;99.90
50804;DHT22;37205;51.434;6.756;2023-12-22T10:31:12;8.80;99.90
50804;DHT22;37205;51.434;6.756;2023-12-22T10:33:37;8.80;99.90
50804;DHT22;37205;51.434;6.756;2023-12-22T10:36:03;8.80;99.90
50804;DHT22;37205;51.434;6.756;2023-12-22T10:38:35;8.70;99.90
50804;DHT22;37205;51.434;6.756;2023-12-22T10:41:01;8.70;99.90
50804;DHT22;37205;51.434;6.756;2023-12-22T10:43:27;8.70;99.90
50804;DHT22;37205;51.434;6.756;2023-12-22T10:45:53;8.70;99.90
50804;DHT22;37205;51.434;6.756;2023-12-22T10:48:19;8.70;99.90
50804;DHT22;37205;51.434;6.756;2023-12-22T10:50:44;8.70;99.90
50804;DHT22;37205;51.434;6.756;2023-12-22T10:53:12;8.60;99.90
50804;DHT22;37205;51.434;6.756;2023-12-22T10:55:38;8.60;99.90
50804;DHT22;37205;51.434;6.756;2023-12-22T10:58:03;8.60;99.90
50804;DHT22;37205;51.434;6.756;2023-12-22T11:00:32;8.60;99.90
50804;DHT22;37205;51.434;6.756;2023-12-22T11:03:07;8.50;99.90
50804;DHT22;37205;51.434;6.756;2023-12-22T11:05:36;8.50;99.90
50804;DHT22;37205;51.434;6.756;2023-12-22T11:08:03;8.50;99.90
50804;DHT22;37205;51.434;6.756;2023-12-22T11:10:31;8.50;99.90
50804;DHT22;37205;51.434;6.756;2023-12-22T11:12:57;8.50;99.90
50804;DHT22;37205;51.434;6.756;2023-12-22T11:15:24;8.50;99.90
50804;DHT22;37205;51.434;6.756;2023-12-22T11:17:51;8.60;99.90
50804;DHT22;37205;51.434;6.756;2023-12-22T11:20:18;8.60;99.90
50804;DHT22;37205;51.434;6.756;2023-12-22T11:22:44;8.60;99.90
50804;DHT22;37205;51.434;6.756;2023-12-22T11:25:10;8.70;99.90
50804;DHT22;37205;51.434;6.756;2023-12-22T11:27:37;8.80;99.90
50804;DHT22;37205;51.434;6.756;2023-12-22T11:30:04;8.90;99.90
50804;DHT22;37205;51.434;6.756;2023-12-22T11:32:34;9.00;99.90
50804;DHT22;37205;51.434;6.756;2023-12-22T11:35:00;9.00;99.90
50804;DHT22;37205;51.434;6.756;2023-12-22T11:37:25;9.10;99.90
50804;DHT22;37205;51.434;6.756;2023-12-22T11:39:51;9.30;99.90
50804;DHT22;37205;51.434;6.756;2023-12-22T11:42:21;9.50;99.90
50804;DHT22;37205;51.434;6.756;2023-12-22T11:44:48;9.50;99.90
50804;DHT22;37205;51.434;6.756;2023-12-22T11:47:14;9.50;99.90
50804;DHT22;37205;51.434;6.756;2023-12-22T11:49:40;9.40;99.90
50804;DHT22;37205;51.434;6.756;2023-12-22T11:52:16;9.50;99.90
50804;DHT22;37205;51.434;6.756;2023-12-22T11:54:46;9.60;99.90
50804;DHT22;37205;51.434;6.756;2023-12-22T11:59:54;9.70;99.90
50804;DHT22;37205;51.434;6.756;2023-12-22T12:02:21;9.70;99.90
50804;DHT22;37205;51.434;6.756;2023-12-22T12:04:50;9.70;99.90
50804;DHT22;37205;51.434;6.756;2023-12-22T12:07:38;9.80;99.90
50804;DHT22;37205;51.434;6.756;2023-12-22T12:10:07;9.80;99.90
50804;DHT22;37205;51.434;6.756;2023-12-22T12:12:33;9.90;99.90
50804;DHT22;37205;51.434;6.756;2023-12-22T12:15:07;9.90;99.90
50804;DHT22;37205;51.434;6.756;2023-12-22T12:17:33;10.00;99.90
50804;DHT22;37205;51.434;6.756;2023-12-22T12:19:59;10.00;99.90
50804;DHT22;37205;51.434;6.756;2023-12-22T12:22:25;10.00;99.90
50804;DHT22;37205;51.434;6.756;2023-12-22T12:24:51;10.10;99.90
50804;DHT22;37205;51.434;6.756;2023-12-22T12:27:20;10.10;99.90
50804;DHT22;37205;51.434;6.756;2023-12-22T12:29:46;10.10;99.90
50804;DHT22;37205;51.434;6.756;2023-12-22T12:32:14;10.10;99.90
50804;DHT22;37205;51.434;6.756;2023-12-22T12:34:42;10.00;99.90
50804;DHT22;37205;51.434;6.756;2023-12-22T12:37:08;10.10;99.90
50804;DHT22;37205;51.434;6.756;2023-12-22T12:39:35;10.00;99.90
50804;DHT22;37205;51.434;6.756;2023-12-22T12:42:02;10.00;99.90
50804;DHT22;37205;51.434;6.756;2023-12-22T12:44:30;9.90;99.90
50804;DHT22;37205;51.434;6.756;2023-12-22T12:46:58;9.80;99.90
50804;DHT22;37205;51.434;6.756;2023-12-22T12:49:23;9.80;99.90
50804;DHT22;37205;51.434;6.756;2023-12-22T12:51:53;9.70;99.90
50804;DHT22;37205;51.434;6.756;2023-12-22T12:54:19;9.70;99.90
50804;DHT22;37205;51.434;6.756;2023-12-22T12:56:46;9.70;99.90
50804;DHT22;37205;51.434;6.756;2023-12-22T12:59:13;9.70;99.90
50804;DHT22;37205;51.434;6.756;2023-12-22T13:01:42;9.60;99.90
50804;DHT22;37205;51.434;6.756;2023-12-22T13:04:09;9.50;99.90
50804;DHT22;37205;51.434;6.756;2023-12-22T13:06:35;9.40;99.90
50804;DHT22;37205;51.434;6.756;2023-12-22T13:09:01;9.30;99.90
50804;DHT22;37205;51.434;6.756;2023-12-22T13:11:28;9.30;99.90
50804;DHT22;37205;51.434;6.756;2023-12-22T13:13:55;9.30;99.90
50804;DHT22;37205;51.434;6.756;2023-12-22T13:16:24;9.30;99.90
50804;DHT22;37205;51.434;6.756;2023-12-22T13:18:57;9.30;99.90
50804;DHT22;37205;51.434;6.756;2023-12-22T13:21:24;9.40;99.90
50804;DHT22;37205;51.434;6.756;2023-12-22T13:24:11;9.50;99.90
50804;DHT22;37205;51.434;6.756;2023-12-22T13:26:37;9.50;99.90
50804;DHT22;37205;51.434;6.756;2023-12-22T13:29:04;9.70;99.90
50804;DHT22;37205;51.434;6.756;2023-12-22T13:31:31;9.70;99.90
50804;DHT22;37205;51.434;6.756;2023-12-22T13:33:57;9.80;99.90
50804;DHT22;37205;51.434;6.756;2023-12-22T13:36:23;9.70;99.90
50804;DHT22;37205;51.434;6.756;2023-12-22T13:38:48;9.70;99.90
50804;DHT22;37205;51.434;6.756;2023-12-22T13:41:15;9.60;99.90
50804;DHT22;37205;51.434;6.756;2023-12-22T13:43:41;9.70;99.90
50804;DHT22;37205;51.434;6.756;2023-12-22T13:46:07;9.60;99.90
50804;DHT22;37205;51.434;6.756;2023-12-22T13:48:33;9.50;99.90
50804;DHT22;37205;51.434;6.756;2023-12-22T13:51:00;9.60;99.90
50804;DHT22;37205;51.434;6.756;2023-12-22T13:53:26;9.60;99.90
50804;DHT22;37205;51.434;6.756;2023-12-22T13:55:56;9.70;99.90
50804;DHT22;37205;51.434;6.756;2023-12-22T13:58:21;9.70;99.90
50804;DHT22;37205;51.434;6.756;2023-12-22T14:00:47;9.70;99.90
50804;DHT22;37205;51.434;6.756;2023-12-22T14:03:13;9.80;99.90
50804;DHT22;37205;51.434;6.756;2023-12-22T14:05:42;9.80;99.90
50804;DHT22;37205;51.434;6.756;2023-12-22T14:08:07;9.80;99.90
50804;DHT22;37205;51.434;6.756;2023-12-22T14:10:33;9.80;99.90
50804;DHT22;37205;51.434;6.756;2023-12-22T14:12:59;9.80;99.90
50804;DHT22;37205;51.434;6.756;2023-12-22T14:18:46;10.10;99.90
50804;DHT22;37205;51.434;6.756;2023-12-22T14:21:12;10.10;99.90
50804;DHT22;37205;51.434;6.756;2023-12-22T14:23:38;10.10;99.90
50804;DHT22;37205;51.434;6.756;2023-12-22T14:26:03;10.10;99.90
50804;DHT22;37205;51.434;6.756;2023-12-22T14:28:30;10.10;99.90
50804;DHT22;37205;51.434;6.756;2023-12-22T14:30:56;10.00;99.90
50804;DHT22;37205;51.434;6.756;2023-12-22T14:33:21;10.10;99.90
50804;DHT22;37205;51.434;6.756;2023-12-22T14:35:47;10.00;99.90
50804;DHT22;37205;51.434;6.756;2023-12-22T14:38:12;10.00;99.90
50804;DHT22;37205;51.434;6.756;2023-12-22T14:40:38;9.90;99.90
50804;DHT22;37205;51.434;6.756;2023-12-22T14:43:04;9.90;99.90
50804;DHT22;37205;51.434;6.756;2023-12-22T14:45:29;9.90;99.90
50804;DHT22;37205;51.434;6.756;2023-12-22T14:47:55;9.90;99.90
50804;DHT22;37205;51.434;6.756;2023-12-22T14:50:21;9.90;99.90
50804;DHT22;37205;51.434;6.756;2023-12-22T14:52:46;9.90;99.90
50804;DHT22;37205;51.434;6.756;2023-12-22T14:55:12;9.90;99.90
50804;DHT22;37205;51.434;6.756;2023-12-22T14:57:37;9.90;99.90
50804;DHT22;37205;51.434;6.756;2023-12-22T15:00:04;9.80;99.90
50804;DHT22;37205;51.434;6.756;2023-12-22T15:02:30;9.80;99.90
50804;DHT22;37205;51.434;6.756;2023-12-22T15:04:56;9.80;99.90
50804;DHT22;37205;51.434;6.756;2023-12-22T15:07:22;9.80;99.90
50804;DHT22;37205;51.434;6.756;2023-12-22T15:09:47;9.70;99.90
50804;DHT22;37205;51.434;6.756;2023-12-22T15:12:16;9.60;99.90
50804;DHT22;37205;51.434;6.756;2023-12-22T15:14:45;9.50;99.90
50804;DHT22;37205;51.434;6.756;2023-12-22T15:17:11;9.40;99.90
50804;DHT22;37205;51.434;6.756;2023-12-22T15:19:40;9.30;99.90
50804;DHT22;37205;51.434;6.756;2023-12-22T15:22:06;9.30;99.90
50804;DHT22;37205;51.434;6.756;2023-12-22T15:24:32;9.30;99.90
50804;DHT22;37205;51.434;6.756;2023-12-22T15:26:57;9.30;99.90
50804;DHT22;37205;51.434;6.756;2023-12-22T15:29:23;9.40;99.90
50804;DHT22;37205;51.434;6.756;2023-12-22T15:31:49;9.50;99.90
50804;DHT22;37205;51.434;6.756;2023-12-22T15:34:14;9.50;99.90
50804;DHT22;37205;51.434;6.756;2023-12-22T15:36:40;9.50;99.90
50804;DHT22;37205;51.434;6.756;2023-12-22T15:39:06;9.60;99.90
50804;DHT22;37205;51.434;6.756;2023-12-22T15:41:31;9.60;99.90
50804;DHT22;37205;51.434;6.756;2023-12-22T15:43:57;9.70;99.90
50804;DHT22;37205;51.434;6.756;2023-12-22T15:46:22;9.60;99.90
50804;DHT22;37205;51.434;6.756;2023-12-22T15:48:48;9.60;99.90